Rockville, Connecticut
Current Conditions -  °F | °C
As of 4:53 AM on Sunday 25 Jan 2015 (Local Time) from KHFD Reporting Station
Broken Clouds Broken Clouds  
Wind Chill: 28°   Ceiling: 4400
Heat Index: 28°   Visibility: 9mi
Dew Point: 25°   Wind: 0mph
Humidity: 88%   Direction: NA
Pressure: 29.53"   Gusts: NA
Location:  41.837°N, 72.4608°W
Report Text: KHFD 250953Z AUTO 00000KT 9SM BKN044 M02/M04 A2953 RMK AO2 SLP000 T10221039
Loading
Personal Weather Stations






























Interactive Weather Map New forecast layout! Learn more

10-Day Weather Forecast

Advertisements
Track Severe Weather on mobile